Terminal Aerodrome Forecast
Issued by NWS

Home | Current Version | Previous Version | Text Only | Print | Product List | Glossary On
Versions: 1 2 3 4 5 6 7 8 9 10 11 12
000
FTUS45 KABQ 280543
TAFLVS
TAF
KLVS 280543Z 2806/2906 35006KT P6SM BKN200
     FM281600 22015G25KT P6SM SCT200
     FM290100 32008KT P6SM FEW100=

USA.gov is the U.S. government's official web portal to all federal, state and local government web resources and services.